Terminal Aerodrome Forecast
Issued by NWS Portland, OR

Home | Current Version | Previous Version | Text Only | Print | Product List | Glossary On
Versions: 1 2 3 4 5 6 7 8 9 10 11 12 13 14 15 16 17 18 19 20
000
FTUS46 KPQR 211800 RRA
TAFTTD
TAF
KTTD 211800Z 2118/2218 09010KT P6SM SCT150 BKN250
     FM212100 09006KT P6SM SCT150 BKN250
     FM220200 09006KT P6SM VCSH BKN040 OVC100
     FM220500 09010KT 4SM -SN SCT015 OVC030
     FM220700 09010KT 1/2SM SN BKN006 OVC015
     FM221200 09010KT 4SM -SN SCT006 BKN012 OVC025
     FM221500 08010KT P6SM SCT025 BKN100=

USA.gov is the U.S. government's official web portal to all federal, state and local government web resources and services.